Time;durP1;ratioP1;P1;durP2;ratioP2;P2;SDS_P1;SDS_P2;PMS_P1;PMS_P2;Temp;Humidity;BMP_temperature;BMP_pressure;BME280_temperature;BME280_humidity;BME280_pressure;Samples;Min_cycle;Max_cycle;Signal;HPM_P1;HPM_P2
2022/06/24 00:00:28;;;;;;;14.82;10.10;;;;;;;20.02;89.11;100426.94;5072169;28;20041;-72
2022/06/24 00:02:55;;;;;;;11.75;9.23;;;;;;;20.02;89.01;100431.41;5060990;28;20044;-73
2022/06/24 00:05:27;;;;;;;11.02;9.07;;;;;;;20.01;88.92;100419.00;5061603;28;20406;-73
2022/06/24 00:07:54;;;;;;;13.18;8.13;;;;;;;19.98;88.34;100417.44;5053422;28;20045;-74
2022/06/24 00:10:28;;;;;;;10.48;7.75;;;;;;;19.94;88.29;100407.91;5056878;28;20037;-73
2022/06/24 00:12:56;;;;;;;11.80;8.52;;;;;;;19.85;88.88;100400.56;5070655;28;20057;-72
2022/06/24 00:15:33;;;;;;;11.57;7.80;;;;;;;19.79;89.27;100412.59;5055678;28;20104;-73
2022/06/24 00:18:19;;;;;;;10.80;8.30;;;;;;;19.80;89.27;100426.84;5052525;28;20511;-73
2022/06/24 00:20:50;;;;;;;9.13;7.20;;;;;;;19.79;90.00;100446.50;5058942;28;20048;-74
2022/06/24 00:23:22;;;;;;;10.60;7.47;;;;;;;19.88;90.62;100466.41;5073099;28;20048;-73
2022/06/24 00:25:50;;;;;;;11.23;8.43;;;;;;;19.97;90.55;100465.72;5056736;28;20124;-74
2022/06/24 00:28:24;;;;;;;9.73;7.60;;;;;;;19.98;89.37;100470.09;5052312;28;20121;-74
2022/06/24 00:30:54;;;;;;;12.57;8.40;;;;;;;19.94;89.79;100517.59;5058064;28;20043;-74
2022/06/24 00:33:32;;;;;;;14.82;9.40;;;;;;;19.90;90.17;100641.84;5063783;28;20458;-74
2022/06/24 00:36:00;;;;;;;18.65;11.90;;;;;;;19.90;90.20;100619.59;5067977;28;20046;-75
2022/06/24 00:38:31;;;;;;;16.20;9.65;;;;;;;19.91;89.06;100608.78;5051044;28;20128;-73
2022/06/24 00:41:12;;;;;;;16.42;9.48;;;;;;;19.94;89.22;100608.53;5058742;28;20045;-72
2022/06/24 00:43:43;;;;;;;16.45;9.20;;;;;;;20.01;88.67;100647.28;5066225;28;20404;-72
2022/06/24 00:46:18;;;;;;;12.98;10.00;;;;;;;19.97;89.51;100647.63;5072886;28;20096;-72
2022/06/24 00:48:53;;;;;;;11.88;8.32;;;;;;;19.97;90.72;100650.28;5068514;28;20112;-73
2022/06/24 00:51:22;;;;;;;10.45;7.28;;;;;;;19.93;90.37;100622.91;5066988;28;20138;-75
2022/06/24 00:53:56;;;;;;;13.57;7.53;;;;;;;19.92;90.58;100609.63;5054390;28;20060;-73
2022/06/24 00:56:27;;;;;;;13.68;8.70;;;;;;;19.88;90.39;100613.53;5064647;28;20041;-73
2022/06/24 00:59:04;;;;;;;11.90;8.18;;;;;;;19.80;90.51;100609.53;5065636;28;20045;-72
2022/06/24 01:01:34;;;;;;;10.82;7.53;;;;;;;19.73;90.27;100610.94;5070462;28;20037;-74
2022/06/24 01:04:07;;;;;;;11.75;7.78;;;;;;;19.67;90.36;100622.94;5062510;28;20048;-73
2022/06/24 01:06:38;;;;;;;12.90;8.35;;;;;;;19.63;91.05;100617.94;5073866;28;20251;-73
2022/06/24 01:09:07;;;;;;;14.18;7.97;;;;;;;19.60;90.67;100607.44;5052503;28;20052;-74
2022/06/24 01:11:37;;;;;;;9.48;7.53;;;;;;;19.58;90.96;100606.72;5068588;28;20053;-74
2022/06/24 01:14:06;;;;;;;12.82;8.30;;;;;;;19.55;91.10;100602.44;5066283;28;20061;-74
2022/06/24 01:16:34;;;;;;;14.38;9.32;;;;;;;19.50;90.94;100597.41;5062693;28;20482;-72
2022/06/24 01:19:10;;;;;;;15.10;10.25;;;;;;;19.48;91.36;100587.81;5066984;28;20418;-72
2022/06/24 01:21:42;;;;;;;12.15;8.80;;;;;;;19.49;91.10;100573.47;5055055;28;20060;-72
2022/06/24 01:24:20;;;;;;;16.08;8.55;;;;;;;19.46;90.80;100576.38;5056692;28;20045;-72
2022/06/24 01:26:52;;;;;;;12.52;9.13;;;;;;;19.41;90.79;100576.69;5064053;28;20530;-71
2022/06/24 01:29:21;;;;;;;13.30;10.52;;;;;;;19.38;90.74;100563.59;5056627;28;20037;-71
2022/06/24 01:31:52;;;;;;;17.17;10.80;;;;;;;19.35;91.06;100548.59;5059187;28;20133;-73
2022/06/24 01:34:23;;;;;;;15.15;10.93;;;;;;;19.34;91.08;100538.03;5057521;28;20045;-72
2022/06/24 01:36:51;;;;;;;17.27;12.15;;;;;;;19.33;91.42;100555.03;5068872;28;20106;-73
2022/06/24 01:39:20;;;;;;;16.65;12.25;;;;;;;19.31;91.52;100565.84;5061813;28;20088;-72
2022/06/24 01:41:49;;;;;;;17.58;12.75;;;;;;;19.29;91.77;100554.41;5065661;28;20049;-73
2022/06/24 01:44:18;;;;;;;20.17;14.20;;;;;;;19.30;91.95;100558.78;5054600;28;20764;-72
2022/06/24 01:46:46;;;;;;;19.42;14.63;;;;;;;19.27;92.22;100559.00;5056193;28;20060;-72
2022/06/24 01:49:13;;;;;;;15.90;12.10;;;;;;;19.27;91.68;100560.81;5053574;28;20092;-73
2022/06/24 01:51:46;;;;;;;14.77;12.25;;;;;;;19.23;91.88;100576.19;5053282;28;20061;-73
2022/06/24 01:54:13;;;;;;;13.18;11.50;;;;;;;19.19;90.61;100585.41;5074563;28;20049;-72
2022/06/24 01:56:40;;;;;;;12.05;10.05;;;;;;;19.13;90.49;100589.38;5073389;28;20072;-73
2022/06/24 01:59:14;;;;;;;12.90;10.55;;;;;;;19.09;90.77;100587.84;5063823;28;20434;-74
2022/06/24 02:01:42;;;;;;;16.13;10.55;;;;;;;19.03;91.18;100597.16;5064462;28;20045;-73
2022/06/24 02:04:11;;;;;;;13.57;10.27;;;;;;;19.01;90.73;100599.09;5053485;28;20045;-73
2022/06/24 02:06:39;;;;;;;10.05;7.60;;;;;;;18.94;90.36;100608.47;5061866;28;20150;-74
2022/06/24 02:09:07;;;;;;;11.77;9.90;;;;;;;18.88;90.99;100615.06;5067945;28;20068;-72
2022/06/24 02:14:23;;;;;;;15.10;10.75;;;;;;;18.88;92.15;100678.31;5057694;28;20053;-74
2022/06/24 02:16:52;;;;;;;15.55;10.38;;;;;;;18.90;92.69;100695.94;5053990;28;20604;-75
2022/06/24 02:19:21;;;;;;;12.27;7.72;;;;;;;18.91;92.60;100667.44;5065018;28;20045;-75
2022/06/24 02:21:48;;;;;;;22.25;9.95;;;;;;;18.76;91.78;100626.63;5073946;28;20125;-75
2022/06/24 02:24:16;;;;;;;23.02;10.85;;;;;;;18.64;92.33;100612.25;5061046;28;20041;-74
2022/06/24 02:26:45;;;;;;;22.13;10.60;;;;;;;18.53;92.62;100590.78;5072878;28;20453;-75
2022/06/24 02:29:12;;;;;;;18.83;14.05;;;;;;;18.41;92.84;100544.44;5070616;28;20537;-74
2022/06/24 02:31:40;;;;;;;17.02;8.50;;;;;;;18.29;92.47;100520.28;5063103;28;20095;-74
2022/06/24 02:34:07;;;;;;;11.50;6.72;;;;;;;18.18;92.74;100524.66;5054985;28;20813;-75
2022/06/24 02:36:34;;;;;;;12.00;6.55;;;;;;;18.04;92.83;100523.75;5053831;28;20090;-76
2022/06/24 02:39:02;;;;;;;9.68;4.07;;;;;;;17.94;92.81;100527.97;5066481;28;20462;-74
2022/06/24 02:41:30;;;;;;;4.50;3.08;;;;;;;17.79;92.39;100535.16;5067912;28;20044;-72
2022/06/24 02:43:57;;;;;;;4.20;2.85;;;;;;;17.67;92.48;100542.16;5071342;28;20056;-74
2022/06/24 02:46:24;;;;;;;3.75;2.33;;;;;;;17.54;92.75;100552.78;5064117;28;20043;-73
2022/06/24 02:48:53;;;;;;;2.63;2.28;;;;;;;17.44;92.99;100547.16;5066756;28;20091;-72
2022/06/24 02:51:20;;;;;;;3.30;2.50;;;;;;;17.39;93.26;100533.28;5071679;28;20515;-73
2022/06/24 02:53:47;;;;;;;3.15;2.00;;;;;;;17.32;93.42;100537.28;5073164;28;20128;-72
2022/06/24 02:56:15;;;;;;;4.22;1.75;;;;;;;17.25;93.74;100544.81;5073119;28;20563;-73
2022/06/24 02:58:43;;;;;;;3.13;1.42;;;;;;;17.20;93.68;100557.56;5057712;28;20514;-73
2022/06/24 03:01:11;;;;;;;3.30;1.45;;;;;;;17.12;93.89;100559.88;5064860;28;20042;-73
2022/06/24 03:03:38;;;;;;;4.45;2.25;;;;;;;17.10;94.66;100556.44;5072222;28;20132;-71
2022/06/24 03:06:07;;;;;;;4.05;2.33;;;;;;;17.13;95.03;100543.78;5072732;28;20075;-71
2022/06/24 03:08:35;;;;;;;6.20;1.90;;;;;;;17.14;94.95;100528.66;5055995;28;20091;-71
2022/06/24 03:11:08;;;;;;;4.47;1.90;;;;;;;17.13;94.97;100524.28;5065895;28;20120;-72
2022/06/24 03:13:35;;;;;;;4.85;2.00;;;;;;;17.10;94.77;100543.13;5054328;28;20263;-71
2022/06/24 03:16:03;;;;;;;6.05;2.63;;;;;;;17.07;94.84;100549.50;5052660;28;20049;-72
2022/06/24 03:18:30;;;;;;;5.20;2.28;;;;;;;17.06;95.05;100545.97;5062618;28;20041;-70
2022/06/24 03:20:57;;;;;;;5.85;2.70;;;;;;;17.03;95.35;100546.19;5066137;28;20091;-73
2022/06/24 03:23:24;;;;;;;7.13;3.03;;;;;;;17.05;95.48;100543.41;5061174;28;20049;-72
2022/06/24 03:25:51;;;;;;;5.32;2.97;;;;;;;17.03;95.86;100546.19;5072576;28;20060;-72
2022/06/24 03:28:18;;;;;;;7.15;3.35;;;;;;;17.05;96.11;100530.09;5063502;28;20041;-72
2022/06/24 03:30:45;;;;;;;7.07;3.40;;;;;;;17.11;96.13;100507.53;5069962;28;20045;-71
2022/06/24 03:33:12;;;;;;;4.45;2.80;;;;;;;17.10;96.09;100504.00;5054778;28;20534;-73
2022/06/24 03:35:40;;;;;;;5.78;3.50;;;;;;;17.11;96.48;100518.19;5082607;28;20109;-74
2022/06/24 03:38:08;;;;;;;8.95;3.13;;;;;;;17.11;96.50;100513.72;5054278;28;20091;-74
2022/06/24 03:40:35;;;;;;;3.75;2.70;;;;;;;17.10;96.39;100513.81;5069766;28;20041;-75
2022/06/24 03:43:02;;;;;;;5.32;2.92;;;;;;;17.06;96.09;100511.34;5061923;28;20073;-74
2022/06/24 03:45:29;;;;;;;6.55;3.70;;;;;;;17.05;96.32;100491.00;5059394;28;20133;-74
2022/06/24 03:47:57;;;;;;;8.25;3.53;;;;;;;17.06;96.50;100490.03;5057868;28;20384;-76
2022/06/24 03:50:24;;;;;;;6.20;2.60;;;;;;;17.05;96.39;100488.31;5070963;28;20598;-73
2022/06/24 03:52:51;;;;;;;6.28;3.25;;;;;;;17.05;96.46;100487.47;5056046;28;20037;-72
2022/06/24 03:55:24;;;;;;;5.25;2.42;;;;;;;17.04;96.56;100489.28;5065519;28;20045;-72
2022/06/24 03:57:51;;;;;;;5.00;2.88;;;;;;;17.01;96.58;100501.94;5052106;28;20107;-72
2022/06/24 04:00:19;;;;;;;5.78;3.03;;;;;;;17.00;96.81;100500.22;5066086;28;20603;-71
2022/06/24 04:02:46;;;;;;;8.80;3.60;;;;;;;17.02;97.19;100515.16;5067644;28;20045;-71
2022/06/24 04:05:16;;;;;;;4.45;3.00;;;;;;;17.04;97.40;100526.56;5063494;28;20045;-72
2022/06/24 04:07:43;;;;;;;4.47;2.78;;;;;;;17.05;97.60;100533.59;5059670;28;20041;-71
2022/06/24 04:10:10;;;;;;;4.25;2.72;;;;;;;17.06;97.66;100526.47;5066417;28;20091;-71
2022/06/24 04:12:37;;;;;;;7.47;2.80;;;;;;;17.04;97.80;100528.38;5056112;28;20756;-71
2022/06/24 04:15:19;;;;;;;4.40;2.70;;;;;;;17.04;97.95;100523.88;5053836;28;20033;-71
2022/06/24 04:17:50;;;;;;;5.03;2.42;;;;;;;17.07;98.18;100529.03;5053943;28;20045;-73
2022/06/24 04:20:18;;;;;;;5.82;2.50;;;;;;;17.07;98.22;100530.84;5061658;28;20509;-71
2022/06/24 04:22:48;;;;;;;3.15;2.22;;;;;;;17.06;98.44;100531.81;5051377;28;20048;-70
2022/06/24 04:25:15;;;;;;;4.93;2.67;;;;;;;17.10;98.68;100529.81;5052587;28;20139;-70
2022/06/24 04:27:43;;;;;;;5.82;3.50;;;;;;;17.13;98.83;100533.13;5065206;28;20062;-70
2022/06/24 04:30:12;;;;;;;4.75;3.20;;;;;;;17.15;98.84;100520.56;5065138;28;20099;-71
2022/06/24 04:32:39;;;;;;;6.72;3.53;;;;;;;17.18;99.00;100522.19;5066576;28;20128;-69
2022/06/24 04:35:08;;;;;;;5.45;3.58;;;;;;;17.22;99.15;100529.88;5070648;28;20445;-70
2022/06/24 04:37:37;;;;;;;5.47;3.28;;;;;;;17.26;99.24;100537.69;5058919;28;20088;-70
2022/06/24 04:40:13;;;;;;;5.72;3.45;;;;;;;17.27;99.17;100534.91;5063507;28;20052;-69
2022/06/24 04:42:46;;;;;;;7.38;3.47;;;;;;;17.25;99.27;100541.28;5066050;28;20049;-69
2022/06/24 04:45:13;;;;;;;4.40;3.38;;;;;;;17.26;99.19;100543.00;5063484;28;20143;-72
2022/06/24 04:47:41;;;;;;;6.32;3.63;;;;;;;17.27;99.26;100553.56;5064519;28;20979;-71
2022/06/24 04:50:09;;;;;;;9.73;3.67;;;;;;;17.28;99.24;100549.94;5070982;28;20041;-72
2022/06/24 04:52:39;;;;;;;8.82;4.05;;;;;;;17.27;99.21;100542.06;5059170;28;20053;-71
2022/06/24 04:55:08;;;;;;;7.50;3.70;;;;;;;17.28;99.11;100551.78;5051494;28;20096;-72
2022/06/24 04:57:35;;;;;;;3.75;3.25;;;;;;;17.29;99.02;100548.16;5063121;28;20099;-74
2022/06/24 05:00:04;;;;;;;9.32;3.75;;;;;;;17.33;99.19;100550.53;5070435;28;20033;-73
2022/06/24 05:02:32;;;;;;;8.60;3.33;;;;;;;17.37;99.10;100553.84;5070926;28;20046;-73
2022/06/24 05:05:00;;;;;;;8.45;4.20;;;;;;;17.41;99.20;100551.84;5053701;28;20038;-72
2022/06/24 05:07:27;;;;;;;6.55;3.58;;;;;;;17.47;99.42;100560.31;5070603;28;20037;-72
2022/06/24 05:09:54;;;;;;;7.72;3.90;;;;;;;17.52;99.37;100555.53;5070340;28;20041;-73
2022/06/24 05:12:21;;;;;;;5.45;3.30;;;;;;;17.53;99.24;100562.56;5056017;28;20903;-71
2022/06/24 05:14:48;;;;;;;4.82;2.67;;;;;;;17.56;99.03;100561.50;5065025;28;20535;-72
2022/06/24 05:17:22;;;;;;;3.65;2.53;;;;;;;17.51;98.69;100555.63;5069101;28;20044;-73
2022/06/24 05:19:51;;;;;;;5.20;2.85;;;;;;;17.52;98.40;100554.69;5071097;28;20422;-74
2022/06/24 05:22:19;;;;;;;5.00;3.00;;;;;;;17.53;98.53;100554.56;5059084;28;20116;-70
2022/06/24 05:24:46;;;;;;;5.03;3.33;;;;;;;17.53;98.26;100567.88;5068530;28;20517;-71
2022/06/24 05:27:15;;;;;;;10.02;4.20;;;;;;;17.55;98.27;100573.13;5070928;28;20048;-70
2022/06/24 05:29:42;;;;;;;9.77;4.18;;;;;;;17.57;98.40;100575.69;5071950;28;20115;-71
2022/06/24 05:32:10;;;;;;;7.40;3.33;;;;;;;17.62;98.58;100586.91;5057013;28;20040;-72
2022/06/24 05:34:37;;;;;;;6.93;3.40;;;;;;;17.70;98.66;100593.47;5063895;28;20041;-71
2022/06/24 05:37:04;;;;;;;14.27;4.40;;;;;;;17.73;97.98;100589.75;5072353;28;20047;-71
2022/06/24 05:39:31;;;;;;;6.68;2.97;;;;;;;17.70;97.48;100593.47;5070333;28;20045;-71
2022/06/24 05:41:58;;;;;;;13.82;4.40;;;;;;;17.69;97.06;100588.25;5076961;28;20191;-70
2022/06/24 05:44:26;;;;;;;8.18;3.97;;;;;;;17.71;97.22;100588.97;5065201;28;20095;-72
2022/06/24 05:46:54;;;;;;;7.35;3.85;;;;;;;17.76;97.07;100586.00;5070631;28;20521;-70
2022/06/24 05:49:23;;;;;;;8.13;3.13;;;;;;;17.73;96.94;100595.06;5073349;28;20048;-72
2022/06/24 05:51:51;;;;;;;9.05;4.53;;;;;;;17.79;97.24;100592.03;5073525;28;20049;-70
2022/06/24 05:57:14;;;;;;;8.90;6.30;;;;;;;17.88;97.10;100579.91;5066037;28;20703;-71
2022/06/24 05:59:41;;;;;;;12.82;7.60;;;;;;;17.90;97.17;100566.47;5069063;28;20904;-71
2022/06/24 06:02:09;;;;;;;14.15;7.80;;;;;;;17.90;97.19;100564.66;5071200;28;20561;-72
2022/06/24 06:04:36;;;;;;;13.65;8.50;;;;;;;17.90;97.25;100569.16;5067638;28;20053;-71
2022/06/24 06:07:04;;;;;;;16.73;9.68;;;;;;;17.91;97.05;100568.16;5075725;28;20150;-72
2022/06/24 06:09:33;;;;;;;12.30;8.63;;;;;;;17.94;97.27;100560.84;5074984;28;20041;-72
2022/06/24 06:12:00;;;;;;;15.60;9.68;;;;;;;17.94;97.21;100555.50;5073655;28;20103;-72
2022/06/24 06:14:27;;;;;;;12.02;8.07;;;;;;;17.89;95.78;100548.78;5071750;27;20565;-71
2022/06/24 06:17:01;;;;;;;10.60;8.30;;;;;;;17.81;95.82;100555.44;5068122;28;20045;-71
2022/06/24 06:19:29;;;;;;;13.85;9.52;;;;;;;17.81;96.49;100560.75;5071650;28;20040;-70
2022/06/24 06:21:56;;;;;;;317.42;21.33;;;;;;;17.83;96.49;100571.34;5073872;28;20639;-72
2022/06/24 06:24:23;;;;;;;21.92;9.90;;;;;;;17.82;96.55;100562.47;5073655;28;20052;-72
2022/06/24 06:26:51;;;;;;;16.65;8.50;;;;;;;17.83;96.83;100564.19;5077873;28;20777;-72
2022/06/24 06:29:18;;;;;;;11.20;8.60;;;;;;;17.88;96.85;100563.88;5080534;28;20490;-72
2022/06/24 06:31:45;;;;;;;16.65;9.88;;;;;;;17.95;96.91;100575.88;5073306;28;20037;-72
2022/06/24 06:34:13;;;;;;;13.48;9.23;;;;;;;18.03;97.07;100575.41;5067737;28;20071;-72
2022/06/24 06:36:40;;;;;;;14.88;9.85;;;;;;;18.07;96.78;100578.72;5073079;28;20073;-72
2022/06/24 06:39:07;;;;;;;23.85;9.30;;;;;;;18.11;96.63;100574.91;5072467;28;20569;-71
2022/06/24 06:41:34;;;;;;;22.70;12.02;;;;;;;18.13;96.76;100571.16;5073215;28;20041;-72
2022/06/24 06:44:01;;;;;;;17.60;9.45;;;;;;;18.15;96.81;100577.25;5072946;28;20060;-72
2022/06/24 06:46:29;;;;;;;18.35;10.68;;;;;;;18.21;96.92;100575.16;5073158;28;20048;-72
2022/06/24 06:48:56;;;;;;;13.88;10.13;;;;;;;18.22;96.71;100580.38;5073659;28;20046;-70
2022/06/24 06:51:23;;;;;;;14.18;9.40;;;;;;;18.24;96.66;100590.94;5073002;28;20103;-71
2022/06/24 06:53:50;;;;;;;14.32;8.30;;;;;;;18.24;96.93;100586.47;5069287;28;20037;-70
2022/06/24 06:56:17;;;;;;;23.02;9.95;;;;;;;18.26;96.97;100591.69;5073199;28;20041;-71
2022/06/24 06:58:45;;;;;;;14.15;10.60;;;;;;;18.28;96.98;100595.97;5072828;28;20558;-72
2022/06/24 07:01:12;;;;;;;14.52;10.27;;;;;;;18.30;96.94;100601.22;5072950;28;20037;-71
2022/06/24 07:03:39;;;;;;;14.85;11.68;;;;;;;18.32;97.06;100601.94;5072240;28;20037;-71
2022/06/24 07:06:06;;;;;;;14.82;11.73;;;;;;;18.35;96.97;100598.25;5072225;28;20122;-71
2022/06/24 07:08:33;;;;;;;15.90;12.98;;;;;;;18.43;96.61;100595.91;5070842;28;20040;-72
2022/06/24 07:11:04;;;;;;;19.52;13.38;;;;;;;18.45;96.60;100592.16;5072671;28;20571;-72
2022/06/24 07:13:31;;;;;;;18.00;12.98;;;;;;;18.50;96.98;100591.84;5073002;28;20695;-72
2022/06/24 07:15:58;;;;;;;14.40;12.25;;;;;;;18.54;96.22;100598.72;5071861;28;20103;-71
2022/06/24 07:18:25;;;;;;;16.63;12.40;;;;;;;18.61;96.22;100591.13;5073002;28;20106;-72
2022/06/24 07:20:53;;;;;;;18.88;12.55;;;;;;;18.71;96.38;100584.22;5073301;28;20056;-72
2022/06/24 07:23:20;;;;;;;15.93;12.50;;;;;;;18.80;94.92;100581.88;5066256;28;20107;-71
2022/06/24 07:25:47;;;;;;;14.82;11.98;;;;;;;18.87;94.51;100577.78;5072604;28;20134;-71
2022/06/24 07:28:14;;;;;;;15.82;12.52;;;;;;;18.96;94.09;100574.50;5088325;28;20044;-72
2022/06/24 07:30:41;;;;;;;16.17;8.68;;;;;;;19.02;93.91;100579.44;5072612;28;20496;-72
2022/06/24 07:33:14;;;;;;;15.60;11.68;;;;;;;19.07;94.38;100581.78;5072536;28;20049;-71
2022/06/24 07:35:41;;;;;;;18.08;11.77;;;;;;;19.11;94.87;100590.44;5072946;28;20541;-72
2022/06/24 07:38:19;;;;;;;15.80;10.70;;;;;;;19.12;94.84;100584.13;5066374;28;20491;-73
2022/06/24 07:40:46;;;;;;;12.48;11.15;;;;;;;19.05;93.34;100584.56;5052734;28;20525;-72
2022/06/24 07:43:13;;;;;;;15.60;12.50;;;;;;;18.97;93.25;100578.06;5052281;28;20073;-71
2022/06/24 07:45:41;;;;;;;15.90;11.95;;;;;;;18.85;92.77;100580.59;5065935;28;20107;-72
2022/06/24 07:48:09;;;;;;;14.80;10.65;;;;;;;18.80;93.12;100581.88;5068582;28;20041;-72
2022/06/24 07:50:36;;;;;;;12.77;10.75;;;;;;;18.83;93.57;100586.97;5071054;28;20040;-73
2022/06/24 07:53:03;;;;;;;20.45;12.32;;;;;;;18.86;94.01;100587.63;5066925;28;20505;-71
2022/06/24 07:58:22;;;;;;;14.15;10.25;;;;;;;19.00;93.88;100588.50;5071327;28;20041;-71
2022/06/24 08:00:49;;;;;;;12.75;10.13;;;;;;;19.01;93.91;100588.41;5072075;28;20041;-72
2022/06/24 08:03:17;;;;;;;16.42;11.07;;;;;;;19.00;93.58;100589.38;5072100;28;20080;-71
2022/06/24 08:05:44;;;;;;;13.85;10.60;;;;;;;18.99;93.61;100581.44;5072295;28;20137;-71
2022/06/24 08:08:21;;;;;;;14.30;10.70;;;;;;;18.99;93.14;100576.09;5072546;28;20044;-71
2022/06/24 08:10:48;;;;;;;12.73;10.18;;;;;;;19.03;93.81;100585.63;5069965;28;20112;-71
2022/06/24 08:13:16;;;;;;;14.13;11.25;;;;;;;19.08;93.99;100581.69;5072044;28;20526;-71
2022/06/24 08:15:43;;;;;;;16.10;11.52;;;;;;;19.16;94.13;100585.63;5072427;28;20091;-70
2022/06/24 08:18:11;;;;;;;16.42;10.13;;;;;;;19.17;93.62;100585.53;5071037;28;20088;-70
2022/06/24 08:20:38;;;;;;;14.10;10.43;;;;;;;19.14;93.43;100576.84;5072452;28;20045;-70
2022/06/24 08:23:06;;;;;;;11.93;10.25;;;;;;;19.11;93.67;100575.25;5070959;28;20122;-71
2022/06/24 08:25:33;;;;;;;15.60;11.40;;;;;;;19.04;93.27;100566.81;5070278;28;20138;-70
2022/06/24 08:28:00;;;;;;;16.73;11.77;;;;;;;19.01;93.88;100563.50;5071183;28;20486;-69
2022/06/24 08:30:28;;;;;;;15.02;11.40;;;;;;;18.97;94.67;100567.38;5072184;28;20628;-69
2022/06/24 08:32:56;;;;;;;13.25;10.40;;;;;;;18.99;94.97;100571.63;5062817;27;20091;-70
2022/06/24 08:35:23;;;;;;;16.67;11.73;;;;;;;19.01;95.09;100572.38;5031955;28;20064;-70
2022/06/24 08:37:57;;;;;;;16.65;10.98;;;;;;;19.07;95.18;100565.75;5030641;28;20042;-71
2022/06/24 08:40:26;;;;;;;12.05;9.98;;;;;;;19.12;95.21;100566.28;5011914;28;20046;-71
2022/06/24 08:42:57;;;;;;;11.32;8.82;;;;;;;19.16;94.71;100558.91;5031095;28;20538;-70
2022/06/24 08:45:25;;;;;;;10.23;8.13;;;;;;;19.17;93.66;100556.13;5032164;28;20526;-71
2022/06/24 08:47:54;;;;;;;13.75;9.38;;;;;;;19.17;93.47;100561.47;5031724;28;20068;-71
2022/06/24 08:50:23;;;;;;;18.52;10.80;;;;;;;19.22;93.19;100563.81;5031953;28;20492;-73
2022/06/24 08:52:53;;;;;;;14.15;10.20;;;;;;;19.29;93.34;100567.75;5031339;28;20057;-71
2022/06/24 08:55:24;;;;;;;16.75;13.40;;;;;;;19.36;93.78;100576.19;5030718;28;20107;-72
2022/06/24 08:57:52;;;;;;;14.50;10.70;;;;;;;19.48;93.48;100577.13;5031656;28;20038;-72
2022/06/24 09:00:21;;;;;;;13.57;11.20;;;;;;;19.61;92.85;100587.78;5030352;28;20046;-72
2022/06/24 09:02:48;;;;;;;14.18;10.77;;;;;;;19.70;92.49;100592.44;5031513;28;20050;-72
2022/06/24 09:05:16;;;;;;;12.52;9.95;;;;;;;19.79;91.23;100591.78;5031313;28;20042;-73
2022/06/24 09:07:45;;;;;;;12.77;9.80;;;;;;;19.81;91.42;100594.34;5032014;28;20042;-72
2022/06/24 09:10:14;;;;;;;14.50;10.45;;;;;;;19.78;91.65;100594.56;5026908;28;20042;-71
2022/06/24 09:12:48;;;;;;;15.75;12.07;;;;;;;19.80;91.28;100592.66;5034113;28;20064;-72
2022/06/24 09:15:16;;;;;;;;;;;;;;;19.76;91.52;100588.47;5035026;28;20049;-71
2022/06/24 09:17:43;;;;;;;34.17;25.02;;;;;;;19.79;91.39;100590.94;5035247;28;20379;-71
2022/06/24 09:20:18;;;;;;;16.55;14.60;;;;;;;19.86;90.79;100585.06;5034425;28;20041;-71
2022/06/24 09:23:09;;;;;;;19.92;17.77;;;;;;;20.00;91.40;100584.03;5034634;28;20053;-72
2022/06/24 09:25:46;;;;;;;17.30;15.00;;;;;;;20.20;91.43;100576.34;5029310;28;20180;-72
2022/06/24 09:28:27;;;;;;;18.55;15.45;;;;;;;20.41;90.66;100575.69;5034510;28;20958;-71
2022/06/24 09:31:04;;;;;;;20.10;15.48;;;;;;;20.54;89.93;100572.91;5033911;28;20049;-74
2022/06/24 09:33:41;;;;;;;16.42;14.52;;;;;;;20.77;89.55;100571.16;5031550;28;20038;-72
2022/06/24 09:36:12;;;;;;;17.67;14.70;;;;;;;20.90;89.25;100563.88;5033540;28;20483;-72
2022/06/24 09:39:02;;;;;;;19.38;15.50;;;;;;;21.21;88.48;100571.34;5030356;28;20038;-72
2022/06/24 09:41:40;;;;;;;17.58;15.68;;;;;;;21.36;87.50;100569.25;5027578;28;20093;-73
2022/06/24 09:44:09;;;;;;;15.70;13.77;;;;;;;21.56;87.73;100567.63;5027266;28;20038;-75
2022/06/24 09:46:36;;;;;;;16.13;14.35;;;;;;;21.66;86.21;100575.81;5033791;28;20052;-74
2022/06/24 09:49:11;;;;;;;14.77;13.15;;;;;;;21.83;85.15;100583.34;5034051;28;20526;-74
2022/06/24 09:51:42;;;;;;;15.93;14.30;;;;;;;21.96;86.19;100575.13;5033726;28;20041;-73
2022/06/24 09:54:11;;;;;;;14.85;12.15;;;;;;;22.06;81.62;100575.22;5032532;28;20092;-73
2022/06/24 09:56:40;;;;;;;16.58;12.68;;;;;;;22.06;82.05;100577.03;5033615;28;20752;-73
2022/06/24 10:01:58;;;;;;;17.33;14.48;;;;;;;22.22;81.46;100577.47;5033151;28;20041;-72
2022/06/24 10:04:27;;;;;;;18.80;15.68;;;;;;;22.34;80.45;100576.41;5033058;28;20108;-73
2022/06/24 10:06:56;;;;;;;18.02;16.05;;;;;;;22.40;79.40;100583.13;5033068;28;20050;-72
2022/06/24 10:09:29;;;;;;;18.45;16.55;;;;;;;22.43;80.26;100582.88;5024386;28;20566;-71
2022/06/24 10:11:58;;;;;;;21.23;16.83;;;;;;;22.42;81.02;100589.25;5031581;28;20054;-74
2022/06/24 10:14:29;;;;;;;24.90;17.20;;;;;;;22.54;82.34;100586.50;5031379;28;20562;-72
2022/06/24 10:16:58;;;;;;;23.55;18.73;;;;;;;22.69;81.35;100587.03;5033762;28;20046;-72
2022/06/24 10:19:27;;;;;;;23.02;17.52;;;;;;;23.01;80.54;100584.22;5032754;28;20484;-73
2022/06/24 10:21:55;;;;;;;19.85;17.30;;;;;;;23.16;79.26;100575.81;5030271;28;20504;-73
2022/06/24 10:24:23;;;;;;;23.38;16.73;;;;;;;23.30;77.56;100575.47;5030526;28;20132;-72
2022/06/24 10:26:56;;;;;;;19.55;17.48;;;;;;;23.33;76.77;100577.03;5033292;28;20054;-72
2022/06/24 10:29:28;;;;;;;19.80;17.67;;;;;;;23.31;76.11;100585.22;5032806;28;20089;-72
2022/06/24 10:32:03;;;;;;;17.98;16.08;;;;;;;23.47;77.89;100592.78;5028734;28;20073;-72
2022/06/24 10:34:34;;;;;;;17.13;14.27;;;;;;;23.69;76.69;100578.28;5033139;28;20050;-72
2022/06/24 10:37:25;;;;;;;15.38;13.27;;;;;;;24.07;70.25;100580.34;5032522;28;20034;-72
2022/06/24 10:39:56;;;;;;;16.73;13.15;;;;;;;24.06;69.59;100571.41;5030896;28;20512;-72
2022/06/24 10:42:24;;;;;;;16.60;13.18;;;;;;;24.17;72.01;100573.94;5029535;28;20123;-73
2022/06/24 10:45:03;;;;;;;15.05;13.55;;;;;;;24.42;73.62;100578.94;5019930;28;20069;-73
2022/06/24 10:47:33;;;;;;;15.15;13.40;;;;;;;24.61;70.75;100567.25;5033301;28;20037;-72
2022/06/24 10:50:02;;;;;;;15.15;13.10;;;;;;;24.50;73.08;100570.97;5033336;28;20559;-72
2022/06/24 10:52:42;;;;;;;14.68;12.85;;;;;;;24.44;68.63;100569.69;5031380;28;20064;-72
2022/06/24 10:55:24;;;;;;;13.52;12.23;;;;;;;24.61;68.20;100575.34;5019956;28;20141;-72
2022/06/24 10:57:54;;;;;;;12.73;11.48;;;;;;;24.73;66.52;100578.72;5013471;28;20505;-74
2022/06/24 11:00:26;;;;;;;17.20;11.82;;;;;;;24.59;69.65;100577.31;5016721;28;20045;-72
2022/06/24 11:03:13;;;;;;;11.63;10.50;;;;;;;24.48;69.80;100567.56;5030193;28;20038;-73
2022/06/24 11:05:45;;;;;;;14.25;10.88;;;;;;;24.69;71.30;100570.09;5030788;28;20045;-72
2022/06/24 11:08:19;;;;;;;15.30;10.75;;;;;;;24.90;70.62;100569.03;5024530;28;20528;-73
2022/06/24 11:10:51;;;;;;;13.20;10.60;;;;;;;25.15;68.55;100566.69;5031497;28;20049;-73
2022/06/24 11:13:22;;;;;;;11.93;10.73;;;;;;;25.08;70.32;100569.13;5032629;28;20050;-74
2022/06/24 11:15:58;;;;;;;15.07;10.07;;;;;;;25.03;64.43;100561.50;5031930;28;20492;-74
2022/06/24 11:18:31;;;;;;;12.38;7.53;;;;;;;25.21;65.09;100566.97;5031766;28;20077;-76
2022/06/24 11:21:07;;;;;;;9.38;8.45;;;;;;;25.13;64.13;100564.16;5032846;28;20046;-75
2022/06/24 11:23:37;;;;;;;12.20;7.50;;;;;;;25.23;67.40;100558.72;5031693;28;20092;-74
2022/06/24 11:26:19;;;;;;;7.20;6.50;;;;;;;25.08;64.57;100561.03;5032821;28;20046;-76
2022/06/24 11:28:52;;;;;;;17.77;7.28;;;;;;;24.98;64.49;100562.94;5031450;28;20503;-76
2022/06/24 11:31:28;;;;;;;7.70;6.13;;;;;;;24.89;63.66;100562.81;5031263;28;20046;-74
2022/06/24 11:34:05;;;;;;;6.88;5.25;;;;;;;24.80;60.73;100583.41;5030844;28;20049;-76
2022/06/24 11:36:34;;;;;;;5.35;3.75;;;;;;;24.55;59.21;100573.22;5032438;28;20038;-75
2022/06/24 11:39:06;;;;;;;6.00;1.95;;;;;;;23.60;62.05;100607.84;5030256;28;20082;-75